sensor_id;sensor_type;location;lat;lon;timestamp;pressure;altitude;pressure_sealevel;temperature;humidity
54194;BME280;40102;50.906;6.972;2022-08-19T00:00:21;100664.75;;;22.73;59.91
54194;BME280;40102;50.906;6.972;2022-08-19T00:02:46;100667.28;;;22.66;60.10
54194;BME280;40102;50.906;6.972;2022-08-19T00:05:13;100667.56;;;22.55;60.19
54194;BME280;40102;50.906;6.972;2022-08-19T00:07:41;100679.13;;;22.49;60.51
54194;BME280;40102;50.906;6.972;2022-08-19T00:10:08;100675.41;;;22.58;60.38
54194;BME280;40102;50.906;6.972;2022-08-19T00:12:34;100662.19;;;22.71;60.05
54194;BME280;40102;50.906;6.972;2022-08-19T00:15:00;100661.75;;;22.84;59.12
54194;BME280;40102;50.906;6.972;2022-08-19T00:17:26;100656.28;;;22.84;59.44
54194;BME280;40102;50.906;6.972;2022-08-19T00:19:51;100657.41;;;22.73;59.40
54194;BME280;40102;50.906;6.972;2022-08-19T00:22:16;100663.16;;;22.62;59.96
54194;BME280;40102;50.906;6.972;2022-08-19T00:24:44;100662.66;;;22.67;59.81
54194;BME280;40102;50.906;6.972;2022-08-19T00:27:10;100668.16;;;22.75;59.82
54194;BME280;40102;50.906;6.972;2022-08-19T00:29:36;100661.84;;;22.74;59.77
54194;BME280;40102;50.906;6.972;2022-08-19T00:32:01;100665.44;;;22.75;59.86
54194;BME280;40102;50.906;6.972;2022-08-19T00:34:27;100670.09;;;22.82;59.50
54194;BME280;40102;50.906;6.972;2022-08-19T00:36:54;100660.06;;;22.91;59.19
54194;BME280;40102;50.906;6.972;2022-08-19T00:39:20;100655.47;;;23.00;58.88
54194;BME280;40102;50.906;6.972;2022-08-19T00:41:47;100657.19;;;23.09;58.22
54194;BME280;40102;50.906;6.972;2022-08-19T00:44:20;100657.38;;;23.15;58.28
54194;BME280;40102;50.906;6.972;2022-08-19T00:46:48;100663.19;;;23.20;57.65
54194;BME280;40102;50.906;6.972;2022-08-19T00:49:23;100654.66;;;23.23;57.88
54194;BME280;40102;50.906;6.972;2022-08-19T00:51:53;100652.97;;;23.22;57.54
54194;BME280;40102;50.906;6.972;2022-08-19T00:54:21;100666.44;;;23.24;57.40
54194;BME280;40102;50.906;6.972;2022-08-19T00:56:46;100652.78;;;23.24;57.46
54194;BME280;40102;50.906;6.972;2022-08-19T00:59:13;100656.38;;;23.24;57.61
54194;BME280;40102;50.906;6.972;2022-08-19T01:01:42;100662.16;;;23.21;57.95
54194;BME280;40102;50.906;6.972;2022-08-19T01:04:09;100664.38;;;23.18;57.95
54194;BME280;40102;50.906;6.972;2022-08-19T01:06:37;100668.81;;;23.19;57.71
54194;BME280;40102;50.906;6.972;2022-08-19T01:09:04;100671.19;;;23.14;58.37
54194;BME280;40102;50.906;6.972;2022-08-19T01:11:31;100664.84;;;22.97;58.74
54194;BME280;40102;50.906;6.972;2022-08-19T01:14:00;100670.09;;;22.82;59.21
54194;BME280;40102;50.906;6.972;2022-08-19T01:16:27;100666.97;;;22.77;59.63
54194;BME280;40102;50.906;6.972;2022-08-19T01:18:53;100665.50;;;22.83;59.40
54194;BME280;40102;50.906;6.972;2022-08-19T01:21:32;100652.91;;;22.90;59.09
54194;BME280;40102;50.906;6.972;2022-08-19T01:23:59;100652.22;;;22.96;58.81
54194;BME280;40102;50.906;6.972;2022-08-19T01:26:26;100656.34;;;23.00;58.44
54194;BME280;40102;50.906;6.972;2022-08-19T01:28:54;100653.09;;;23.05;58.69
54194;BME280;40102;50.906;6.972;2022-08-19T01:31:25;100653.78;;;23.07;58.48
54194;BME280;40102;50.906;6.972;2022-08-19T01:33:53;100650.22;;;23.06;58.40
54194;BME280;40102;50.906;6.972;2022-08-19T01:36:36;100646.78;;;23.04;58.25
54194;BME280;40102;50.906;6.972;2022-08-19T01:39:05;100651.22;;;23.05;58.30
54194;BME280;40102;50.906;6.972;2022-08-19T01:41:31;100647.81;;;23.03;58.41
54194;BME280;40102;50.906;6.972;2022-08-19T01:43:57;100640.47;;;23.04;58.52
54194;BME280;40102;50.906;6.972;2022-08-19T01:46:22;100640.16;;;23.07;58.28
54194;BME280;40102;50.906;6.972;2022-08-19T01:48:48;100629.41;;;23.05;58.34
54194;BME280;40102;50.906;6.972;2022-08-19T01:51:14;100632.13;;;23.05;58.44
54194;BME280;40102;50.906;6.972;2022-08-19T01:53:40;100638.44;;;23.06;58.15
54194;BME280;40102;50.906;6.972;2022-08-19T01:56:07;100634.34;;;23.02;58.17
54194;BME280;40102;50.906;6.972;2022-08-19T01:58:38;100640.13;;;22.99;58.25
54194;BME280;40102;50.906;6.972;2022-08-19T02:01:05;100641.16;;;22.98;58.69
54194;BME280;40102;50.906;6.972;2022-08-19T02:03:31;100643.03;;;22.97;58.38
54194;BME280;40102;50.906;6.972;2022-08-19T02:05:58;100650.53;;;22.95;58.51
54194;BME280;40102;50.906;6.972;2022-08-19T02:08:29;100657.00;;;22.94;58.60
54194;BME280;40102;50.906;6.972;2022-08-19T02:10:54;100653.06;;;22.88;58.36
54194;BME280;40102;50.906;6.972;2022-08-19T02:13:20;100648.28;;;22.90;58.59
54194;BME280;40102;50.906;6.972;2022-08-19T02:15:45;100648.78;;;22.86;58.50
54194;BME280;40102;50.906;6.972;2022-08-19T02:18:11;100649.97;;;22.83;58.97
54194;BME280;40102;50.906;6.972;2022-08-19T02:20:38;100641.13;;;22.81;58.99
54194;BME280;40102;50.906;6.972;2022-08-19T02:23:06;100640.25;;;22.81;59.01
54194;BME280;40102;50.906;6.972;2022-08-19T02:25:31;100647.72;;;22.79;58.76
54194;BME280;40102;50.906;6.972;2022-08-19T02:27:57;100647.72;;;22.79;59.05
54194;BME280;40102;50.906;6.972;2022-08-19T02:30:22;100648.59;;;22.79;58.63
54194;BME280;40102;50.906;6.972;2022-08-19T02:32:49;100651.47;;;22.78;59.00
54194;BME280;40102;50.906;6.972;2022-08-19T02:35:15;100644.31;;;22.77;58.83
54194;BME280;40102;50.906;6.972;2022-08-19T02:37:41;100657.94;;;22.77;58.89
54194;BME280;40102;50.906;6.972;2022-08-19T02:40:27;100657.09;;;22.76;59.07
54194;BME280;40102;50.906;6.972;2022-08-19T02:42:52;100658.28;;;22.74;59.16
54194;BME280;40102;50.906;6.972;2022-08-19T02:45:18;100658.59;;;22.71;59.32
54194;BME280;40102;50.906;6.972;2022-08-19T02:47:43;100667.63;;;22.71;59.22
54194;BME280;40102;50.906;6.972;2022-08-19T02:50:09;100665.94;;;22.70;59.10
54194;BME280;40102;50.906;6.972;2022-08-19T02:52:35;100665.22;;;22.68;59.15
54194;BME280;40102;50.906;6.972;2022-08-19T02:55:01;100667.09;;;22.68;59.43
54194;BME280;40102;50.906;6.972;2022-08-19T02:57:27;100669.31;;;22.64;59.18
54194;BME280;40102;50.906;6.972;2022-08-19T02:59:53;100657.69;;;22.54;59.65
54194;BME280;40102;50.906;6.972;2022-08-19T03:02:19;100661.38;;;22.45;60.45
54194;BME280;40102;50.906;6.972;2022-08-19T03:04:45;100664.28;;;22.43;60.10
54194;BME280;40102;50.906;6.972;2022-08-19T03:07:15;100661.22;;;22.46;60.09
54194;BME280;40102;50.906;6.972;2022-08-19T03:09:41;100666.19;;;22.51;59.60
54194;BME280;40102;50.906;6.972;2022-08-19T03:12:08;100670.13;;;22.56;59.55
54194;BME280;40102;50.906;6.972;2022-08-19T03:14:34;100658.72;;;22.61;59.28
54194;BME280;40102;50.906;6.972;2022-08-19T03:17:01;100657.56;;;22.63;59.13
54194;BME280;40102;50.906;6.972;2022-08-19T03:19:26;100663.69;;;22.66;59.13
54194;BME280;40102;50.906;6.972;2022-08-19T03:21:52;100665.22;;;22.68;58.91
54194;BME280;40102;50.906;6.972;2022-08-19T03:24:19;100672.41;;;22.69;58.91
54194;BME280;40102;50.906;6.972;2022-08-19T03:26:48;100672.88;;;22.65;58.85
54194;BME280;40102;50.906;6.972;2022-08-19T03:29:15;100674.94;;;22.62;58.96
54194;BME280;40102;50.906;6.972;2022-08-19T03:31:42;100672.19;;;22.62;58.93
54194;BME280;40102;50.906;6.972;2022-08-19T03:34:09;100688.72;;;22.61;59.10
54194;BME280;40102;50.906;6.972;2022-08-19T03:36:37;100678.31;;;22.56;59.60
54194;BME280;40102;50.906;6.972;2022-08-19T03:39:03;100678.63;;;22.53;59.42
54194;BME280;40102;50.906;6.972;2022-08-19T03:41:31;100679.66;;;22.52;59.59
54194;BME280;40102;50.906;6.972;2022-08-19T03:43:58;100686.97;;;22.52;59.29
54194;BME280;40102;50.906;6.972;2022-08-19T03:46:26;100682.53;;;22.51;59.66
54194;BME280;40102;50.906;6.972;2022-08-19T03:48:54;100689.69;;;22.52;59.92
54194;BME280;40102;50.906;6.972;2022-08-19T03:51:25;100695.16;;;22.52;59.69
54194;BME280;40102;50.906;6.972;2022-08-19T03:53:52;100695.47;;;22.49;59.85
54194;BME280;40102;50.906;6.972;2022-08-19T03:56:18;100687.31;;;22.49;59.50
54194;BME280;40102;50.906;6.972;2022-08-19T03:58:44;100687.47;;;22.47;59.42
54194;BME280;40102;50.906;6.972;2022-08-19T04:01:13;100696.66;;;22.46;59.53
54194;BME280;40102;50.906;6.972;2022-08-19T04:03:39;100689.63;;;22.36;59.79
54194;BME280;40102;50.906;6.972;2022-08-19T04:06:26;100694.44;;;22.16;60.66
54194;BME280;40102;50.906;6.972;2022-08-19T04:08:54;100690.13;;;22.05;61.27
54194;BME280;40102;50.906;6.972;2022-08-19T04:11:33;100694.47;;;21.98;61.29
54194;BME280;40102;50.906;6.972;2022-08-19T04:14:00;100694.28;;;21.99;61.58
54194;BME280;40102;50.906;6.972;2022-08-19T04:16:26;100699.47;;;22.03;61.46
54194;BME280;40102;50.906;6.972;2022-08-19T04:18:56;100701.53;;;22.09;61.38
54194;BME280;40102;50.906;6.972;2022-08-19T04:21:25;100699.03;;;22.15;60.67
54194;BME280;40102;50.906;6.972;2022-08-19T04:23:52;100697.84;;;22.18;60.54
54194;BME280;40102;50.906;6.972;2022-08-19T04:26:21;100710.63;;;22.17;60.81
54194;BME280;40102;50.906;6.972;2022-08-19T04:28:48;100710.41;;;22.11;60.94
54194;BME280;40102;50.906;6.972;2022-08-19T04:31:23;100718.41;;;22.12;60.99
54194;BME280;40102;50.906;6.972;2022-08-19T04:33:57;100716.56;;;22.13;60.97
54194;BME280;40102;50.906;6.972;2022-08-19T04:36:28;100706.34;;;22.15;60.60
54194;BME280;40102;50.906;6.972;2022-08-19T04:38:59;100709.78;;;22.17;60.59
54194;BME280;40102;50.906;6.972;2022-08-19T04:41:25;100700.59;;;22.18;60.38
54194;BME280;40102;50.906;6.972;2022-08-19T04:44:10;100707.56;;;22.20;60.45
54194;BME280;40102;50.906;6.972;2022-08-19T04:46:36;100712.00;;;22.21;60.52
54194;BME280;40102;50.906;6.972;2022-08-19T04:49:03;100718.31;;;22.22;60.50
54194;BME280;40102;50.906;6.972;2022-08-19T04:51:31;100711.84;;;22.23;60.32
54194;BME280;40102;50.906;6.972;2022-08-19T04:53:57;100711.00;;;22.22;60.21
54194;BME280;40102;50.906;6.972;2022-08-19T04:56:23;100722.59;;;22.24;60.15
54194;BME280;40102;50.906;6.972;2022-08-19T04:58:51;100729.06;;;22.23;60.15
54194;BME280;40102;50.906;6.972;2022-08-19T05:01:19;100731.03;;;22.13;61.11
54194;BME280;40102;50.906;6.972;2022-08-19T05:03:45;100733.84;;;22.04;61.70
54194;BME280;40102;50.906;6.972;2022-08-19T05:06:12;100732.25;;;22.01;61.71
54194;BME280;40102;50.906;6.972;2022-08-19T05:08:40;100736.72;;;22.02;61.68
54194;BME280;40102;50.906;6.972;2022-08-19T05:11:22;100731.41;;;22.01;61.78
54194;BME280;40102;50.906;6.972;2022-08-19T05:13:48;100729.84;;;21.98;61.90
54194;BME280;40102;50.906;6.972;2022-08-19T05:16:16;100744.50;;;21.97;62.26
54194;BME280;40102;50.906;6.972;2022-08-19T05:18:42;100746.50;;;21.95;62.29
54194;BME280;40102;50.906;6.972;2022-08-19T05:21:27;100752.44;;;21.90;62.76
54194;BME280;40102;50.906;6.972;2022-08-19T05:24:11;100751.19;;;21.85;63.13
54194;BME280;40102;50.906;6.972;2022-08-19T05:26:43;100747.38;;;21.78;63.58
54194;BME280;40102;50.906;6.972;2022-08-19T05:29:12;100746.00;;;21.74;63.89
54194;BME280;40102;50.906;6.972;2022-08-19T05:31:38;100751.28;;;21.75;64.30
54194;BME280;40102;50.906;6.972;2022-08-19T05:34:04;100756.09;;;21.81;63.73
54194;BME280;40102;50.906;6.972;2022-08-19T05:36:43;100755.09;;;21.82;64.10
54194;BME280;40102;50.906;6.972;2022-08-19T05:39:13;100753.06;;;21.84;64.23
54194;BME280;40102;50.906;6.972;2022-08-19T05:41:45;100754.47;;;21.88;63.94
54194;BME280;40102;50.906;6.972;2022-08-19T05:44:11;100755.84;;;21.92;64.02
54194;BME280;40102;50.906;6.972;2022-08-19T05:46:37;100763.88;;;21.94;64.26
54194;BME280;40102;50.906;6.972;2022-08-19T05:49:07;100760.91;;;21.87;64.84
54194;BME280;40102;50.906;6.972;2022-08-19T05:51:34;100752.38;;;21.82;65.07
54194;BME280;40102;50.906;6.972;2022-08-19T05:54:04;100752.22;;;21.84;64.67
54194;BME280;40102;50.906;6.972;2022-08-19T05:56:31;100758.03;;;21.89;64.70
54194;BME280;40102;50.906;6.972;2022-08-19T05:58:58;100761.63;;;21.89;64.50
54194;BME280;40102;50.906;6.972;2022-08-19T06:01:25;100758.81;;;21.81;65.18
54194;BME280;40102;50.906;6.972;2022-08-19T06:03:51;100749.66;;;21.64;65.71
54194;BME280;40102;50.906;6.972;2022-08-19T06:06:17;100755.19;;;21.55;66.52
54194;BME280;40102;50.906;6.972;2022-08-19T06:08:44;100743.66;;;21.43;66.98
54194;BME280;40102;50.906;6.972;2022-08-19T06:13:50;100737.22;;;21.44;66.63
54194;BME280;40102;50.906;6.972;2022-08-19T06:16:20;100733.88;;;21.50;66.56
54194;BME280;40102;50.906;6.972;2022-08-19T06:18:51;100727.19;;;21.45;66.34
54194;BME280;40102;50.906;6.972;2022-08-19T06:21:21;100736.75;;;21.49;66.50
54194;BME280;40102;50.906;6.972;2022-08-19T06:23:48;100730.44;;;21.48;66.07
54194;BME280;40102;50.906;6.972;2022-08-19T06:26:15;100736.44;;;21.52;66.51
54194;BME280;40102;50.906;6.972;2022-08-19T06:28:41;100734.81;;;21.41;66.87
54194;BME280;40102;50.906;6.972;2022-08-19T06:31:10;100744.81;;;21.41;66.66
54194;BME280;40102;50.906;6.972;2022-08-19T06:33:38;100737.38;;;21.43;66.52
54194;BME280;40102;50.906;6.972;2022-08-19T06:36:05;100731.31;;;21.49;66.08
54194;BME280;40102;50.906;6.972;2022-08-19T06:38:31;100736.28;;;21.53;66.25
54194;BME280;40102;50.906;6.972;2022-08-19T06:41:03;100742.50;;;21.46;67.10
54194;BME280;40102;50.906;6.972;2022-08-19T06:43:29;100753.78;;;21.51;66.82
54194;BME280;40102;50.906;6.972;2022-08-19T06:45:55;100754.31;;;21.54;66.98
54194;BME280;40102;50.906;6.972;2022-08-19T06:48:21;100755.47;;;21.52;67.06
54194;BME280;40102;50.906;6.972;2022-08-19T06:50:47;100754.78;;;21.50;67.58
54194;BME280;40102;50.906;6.972;2022-08-19T06:53:15;100753.78;;;21.51;67.08
54194;BME280;40102;50.906;6.972;2022-08-19T06:55:41;100743.19;;;21.48;67.72
54194;BME280;40102;50.906;6.972;2022-08-19T06:58:11;100757.75;;;21.56;67.91
54194;BME280;40102;50.906;6.972;2022-08-19T07:00:37;100746.53;;;21.59;67.17
54194;BME280;40102;50.906;6.972;2022-08-19T07:03:02;100753.06;;;21.66;66.62
54194;BME280;40102;50.906;6.972;2022-08-19T07:05:29;100752.28;;;21.74;66.62
54194;BME280;40102;50.906;6.972;2022-08-19T07:07:55;100762.72;;;21.79;66.72
54194;BME280;40102;50.906;6.972;2022-08-19T07:10:21;100760.00;;;21.79;66.47
54194;BME280;40102;50.906;6.972;2022-08-19T07:12:46;100759.22;;;21.86;65.94
54194;BME280;40102;50.906;6.972;2022-08-19T07:15:14;100761.63;;;21.89;66.06
54194;BME280;40102;50.906;6.972;2022-08-19T07:17:40;100764.56;;;21.96;65.74
54194;BME280;40102;50.906;6.972;2022-08-19T07:20:09;100770.53;;;21.99;65.58
54194;BME280;40102;50.906;6.972;2022-08-19T07:22:40;100773.69;;;22.05;65.49
54194;BME280;40102;50.906;6.972;2022-08-19T07:25:27;100766.69;;;22.02;65.04
54194;BME280;40102;50.906;6.972;2022-08-19T07:28:14;100773.69;;;22.05;65.48
54194;BME280;40102;50.906;6.972;2022-08-19T07:30:40;100782.09;;;22.11;65.25
54194;BME280;40102;50.906;6.972;2022-08-19T07:33:05;100782.09;;;22.11;65.28
54194;BME280;40102;50.906;6.972;2022-08-19T07:35:31;100784.09;;;22.09;65.38
54194;BME280;40102;50.906;6.972;2022-08-19T07:37:57;100795.69;;;22.11;65.60
54194;BME280;40102;50.906;6.972;2022-08-19T07:40:23;100798.25;;;22.13;65.17
54194;BME280;40102;50.906;6.972;2022-08-19T07:42:48;100797.94;;;22.16;65.49
54194;BME280;40102;50.906;6.972;2022-08-19T07:45:13;100798.97;;;22.15;65.26
54194;BME280;40102;50.906;6.972;2022-08-19T07:47:41;100789.94;;;22.14;64.66
54194;BME280;40102;50.906;6.972;2022-08-19T07:50:08;100801.69;;;22.15;64.26
54194;BME280;40102;50.906;6.972;2022-08-19T07:52:36;100800.84;;;22.14;64.19
54194;BME280;40102;50.906;6.972;2022-08-19T07:55:03;100808.84;;;22.16;64.07
54194;BME280;40102;50.906;6.972;2022-08-19T07:57:29;100808.69;;;22.17;64.20
54194;BME280;40102;50.906;6.972;2022-08-19T07:59:55;100808.84;;;22.16;64.82
54194;BME280;40102;50.906;6.972;2022-08-19T08:02:21;100817.19;;;22.14;64.67
54194;BME280;40102;50.906;6.972;2022-08-19T08:04:46;100818.34;;;22.12;65.00
54194;BME280;40102;50.906;6.972;2022-08-19T08:07:30;100819.19;;;22.12;65.00
54194;BME280;40102;50.906;6.972;2022-08-19T08:10:18;100828.06;;;22.14;64.87
54194;BME280;40102;50.906;6.972;2022-08-19T08:12:43;100831.81;;;22.13;65.55
54194;BME280;40102;50.906;6.972;2022-08-19T08:15:13;100830.41;;;22.09;65.59
54194;BME280;40102;50.906;6.972;2022-08-19T08:17:44;100831.03;;;22.03;65.65
54194;BME280;40102;50.906;6.972;2022-08-19T08:20:09;100830.19;;;22.03;65.97
54194;BME280;40102;50.906;6.972;2022-08-19T08:22:35;100831.03;;;22.03;65.20
54194;BME280;40102;50.906;6.972;2022-08-19T08:25:21;100824.09;;;22.09;65.51
54194;BME280;40102;50.906;6.972;2022-08-19T08:27:48;100826.34;;;22.13;65.01
54194;BME280;40102;50.906;6.972;2022-08-19T08:30:21;100839.50;;;22.18;65.28
54194;BME280;40102;50.906;6.972;2022-08-19T08:32:48;100832.03;;;22.20;65.13
54194;BME280;40102;50.906;6.972;2022-08-19T08:35:18;100833.44;;;22.24;65.03
54194;BME280;40102;50.906;6.972;2022-08-19T08:37:45;100828.69;;;22.26;65.50
54194;BME280;40102;50.906;6.972;2022-08-19T08:43:03;100823.06;;;22.27;64.84
54194;BME280;40102;50.906;6.972;2022-08-19T08:45:33;100822.75;;;22.30;64.88
54194;BME280;40102;50.906;6.972;2022-08-19T08:48:02;100822.59;;;22.32;64.58
54194;BME280;40102;50.906;6.972;2022-08-19T08:50:33;100827.88;;;22.34;64.58
54194;BME280;40102;50.906;6.972;2022-08-19T08:53:02;100825.16;;;22.34;64.37
54194;BME280;40102;50.906;6.972;2022-08-19T08:55:29;100832.47;;;22.33;64.54
54194;BME280;40102;50.906;6.972;2022-08-19T08:58:07;100816.81;;;22.35;64.74
54194;BME280;40102;50.906;6.972;2022-08-19T09:00:40;100825.53;;;22.39;64.31
54194;BME280;40102;50.906;6.972;2022-08-19T09:03:25;100828.97;;;22.41;64.95
54194;BME280;40102;50.906;6.972;2022-08-19T09:06:04;100821.63;;;22.41;65.29
54194;BME280;40102;50.906;6.972;2022-08-19T09:11:40;100823.50;;;22.41;65.91
54194;BME280;40102;50.906;6.972;2022-08-19T09:16:43;100828.16;;;22.48;65.97
54194;BME280;40102;50.906;6.972;2022-08-19T09:19:09;100817.25;;;22.48;65.32
54194;BME280;40102;50.906;6.972;2022-08-19T09:21:35;100824.97;;;22.53;64.63
54194;BME280;40102;50.906;6.972;2022-08-19T09:24:05;100823.78;;;22.55;64.48
54194;BME280;40102;50.906;6.972;2022-08-19T09:26:32;100817.84;;;22.60;63.60
54194;BME280;40102;50.906;6.972;2022-08-19T09:28:58;100820.94;;;22.65;63.94
54194;BME280;40102;50.906;6.972;2022-08-19T09:31:27;100808.72;;;22.69;63.69
54194;BME280;40102;50.906;6.972;2022-08-19T09:33:53;100819.28;;;22.72;63.04
54194;BME280;40102;50.906;6.972;2022-08-19T09:36:23;100817.94;;;22.76;62.46
54194;BME280;40102;50.906;6.972;2022-08-19T09:38:50;100819.38;;;22.80;62.03
54194;BME280;40102;50.906;6.972;2022-08-19T09:41:21;100816.31;;;22.83;61.67
54194;BME280;40102;50.906;6.972;2022-08-19T09:43:49;100814.66;;;22.90;61.76
54194;BME280;40102;50.906;6.972;2022-08-19T09:46:18;100824.38;;;22.93;61.51
54194;BME280;40102;50.906;6.972;2022-08-19T09:48:46;100818.75;;;22.94;61.02
54194;BME280;40102;50.906;6.972;2022-08-19T09:51:16;100817.75;;;22.96;59.76
54194;BME280;40102;50.906;6.972;2022-08-19T09:53:46;100812.13;;;22.97;59.03
54194;BME280;40102;50.906;6.972;2022-08-19T09:56:13;100812.97;;;22.98;59.44
54194;BME280;40102;50.906;6.972;2022-08-19T09:58:39;100809.06;;;23.00;59.44
54194;BME280;40102;50.906;6.972;2022-08-19T10:01:08;100814.19;;;23.03;59.25
54194;BME280;40102;50.906;6.972;2022-08-19T10:03:35;100820.50;;;23.04;59.16
54194;BME280;40102;50.906;6.972;2022-08-19T10:06:03;100813.19;;;23.04;58.69
54194;BME280;40102;50.906;6.972;2022-08-19T10:08:31;100818.47;;;23.06;58.88
54194;BME280;40102;50.906;6.972;2022-08-19T10:10:59;100802.63;;;23.09;58.18
54194;BME280;40102;50.906;6.972;2022-08-19T10:13:27;100806.59;;;23.15;57.76
54194;BME280;40102;50.906;6.972;2022-08-19T10:15:54;100805.41;;;23.17;58.06
54194;BME280;40102;50.906;6.972;2022-08-19T10:18:22;100805.22;;;23.19;58.13
54194;BME280;40102;50.906;6.972;2022-08-19T10:20:49;100798.06;;;23.18;58.12
54194;BME280;40102;50.906;6.972;2022-08-19T10:23:16;100804.22;;;23.20;58.07
54194;BME280;40102;50.906;6.972;2022-08-19T10:25:42;100811.03;;;23.24;57.53
54194;BME280;40102;50.906;6.972;2022-08-19T10:28:08;100808.84;;;23.27;57.07
54194;BME280;40102;50.906;6.972;2022-08-19T10:30:40;100800.50;;;23.29;57.61
54194;BME280;40102;50.906;6.972;2022-08-19T10:33:12;100807.81;;;23.29;57.00
54194;BME280;40102;50.906;6.972;2022-08-19T10:35:39;100808.69;;;23.29;57.36
54194;BME280;40102;50.906;6.972;2022-08-19T10:38:04;100797.59;;;23.31;56.79
54194;BME280;40102;50.906;6.972;2022-08-19T10:40:30;100793.84;;;23.32;56.77
54194;BME280;40102;50.906;6.972;2022-08-19T10:43:01;100790.09;;;23.33;57.00
54194;BME280;40102;50.906;6.972;2022-08-19T10:45:28;100785.00;;;23.38;56.82
54194;BME280;40102;50.906;6.972;2022-08-19T10:47:57;100783.63;;;23.42;56.99
54194;BME280;40102;50.906;6.972;2022-08-19T10:50:22;100782.63;;;23.43;56.63
54194;BME280;40102;50.906;6.972;2022-08-19T10:53:11;100777.69;;;23.46;56.28
54194;BME280;40102;50.906;6.972;2022-08-19T10:55:37;100786.72;;;23.47;56.50
54194;BME280;40102;50.906;6.972;2022-08-19T10:58:23;100783.13;;;23.46;56.50
54194;BME280;40102;50.906;6.972;2022-08-19T11:00:56;100785.19;;;23.44;56.73
54194;BME280;40102;50.906;6.972;2022-08-19T11:03:23;100780.75;;;23.43;56.27
54194;BME280;40102;50.906;6.972;2022-08-19T11:06:08;100775.44;;;23.42;56.36
54194;BME280;40102;50.906;6.972;2022-08-19T11:08:35;100779.03;;;23.42;56.78
54194;BME280;40102;50.906;6.972;2022-08-19T11:11:03;100775.81;;;23.47;56.80
54194;BME280;40102;50.906;6.972;2022-08-19T11:13:31;100781.63;;;23.52;56.60
54194;BME280;40102;50.906;6.972;2022-08-19T11:16:08;100780.59;;;23.53;56.88
54194;BME280;40102;50.906;6.972;2022-08-19T11:18:43;100770.41;;;23.55;56.76
54194;BME280;40102;50.906;6.972;2022-08-19T11:21:14;100758.63;;;23.54;56.54
54194;BME280;40102;50.906;6.972;2022-08-19T11:23:45;100753.28;;;23.53;56.54
54194;BME280;40102;50.906;6.972;2022-08-19T11:26:12;100752.94;;;23.48;56.63
54194;BME280;40102;50.906;6.972;2022-08-19T11:28:41;100770.06;;;23.58;56.68
54194;BME280;40102;50.906;6.972;2022-08-19T11:31:17;100753.28;;;23.53;56.28
54194;BME280;40102;50.906;6.972;2022-08-19T11:33:43;100762.38;;;23.62;56.53
54194;BME280;40102;50.906;6.972;2022-08-19T11:36:09;100751.13;;;23.65;56.32
54194;BME280;40102;50.906;6.972;2022-08-19T11:39:07;100765.13;;;23.78;55.49
54194;BME280;40102;50.906;6.972;2022-08-19T11:44:11;100748.25;;;23.90;53.86
54194;BME280;40102;50.906;6.972;2022-08-19T11:46:46;100750.13;;;23.98;54.20
54194;BME280;40102;50.906;6.972;2022-08-19T11:49:20;100748.41;;;23.97;53.57
54194;BME280;40102;50.906;6.972;2022-08-19T11:52:07;100755.41;;;24.00;53.89
54194;BME280;40102;50.906;6.972;2022-08-19T11:54:39;100755.56;;;24.06;53.17
54194;BME280;40102;50.906;6.972;2022-08-19T11:57:04;100759.50;;;24.12;53.49
54194;BME280;40102;50.906;6.972;2022-08-19T11:59:30;100745.81;;;24.20;52.47
54194;BME280;40102;50.906;6.972;2022-08-19T12:01:55;100749.41;;;24.20;52.43
54194;BME280;40102;50.906;6.972;2022-08-19T12:04:22;100744.63;;;24.22;52.88
54194;BME280;40102;50.906;6.972;2022-08-19T12:06:47;100758.31;;;24.31;51.98
54194;BME280;40102;50.906;6.972;2022-08-19T12:09:13;100749.56;;;24.43;51.99
54194;BME280;40102;50.906;6.972;2022-08-19T12:11:40;100754.50;;;24.56;51.06
54194;BME280;40102;50.906;6.972;2022-08-19T12:14:08;100748.81;;;24.66;51.13
54194;BME280;40102;50.906;6.972;2022-08-19T12:16:34;100746.91;;;24.74;50.83
54194;BME280;40102;50.906;6.972;2022-08-19T12:19:00;100746.56;;;24.77;50.80
54194;BME280;40102;50.906;6.972;2022-08-19T12:21:30;100745.88;;;24.75;51.14
54194;BME280;40102;50.906;6.972;2022-08-19T12:23:57;100747.63;;;24.68;51.21
54194;BME280;40102;50.906;6.972;2022-08-19T12:26:23;100754.66;;;24.63;51.10
54194;BME280;40102;50.906;6.972;2022-08-19T12:28:49;100763.34;;;24.74;50.19
54194;BME280;40102;50.906;6.972;2022-08-19T12:31:15;100739.22;;;24.78;49.95
54194;BME280;40102;50.906;6.972;2022-08-19T12:33:41;100750.47;;;24.83;50.42
54194;BME280;40102;50.906;6.972;2022-08-19T12:36:10;100742.09;;;24.84;49.82
54194;BME280;40102;50.906;6.972;2022-08-19T12:38:37;100737.34;;;24.78;50.66
54194;BME280;40102;50.906;6.972;2022-08-19T12:41:04;100747.78;;;24.75;51.01
54194;BME280;40102;50.906;6.972;2022-08-19T12:43:35;100750.63;;;24.90;48.19
54194;BME280;40102;50.906;6.972;2022-08-19T12:46:01;100742.00;;;25.09;45.94
54194;BME280;40102;50.906;6.972;2022-08-19T12:48:26;100733.84;;;25.32;46.23
54194;BME280;40102;50.906;6.972;2022-08-19T12:50:52;100721.94;;;25.47;46.56
54194;BME280;40102;50.906;6.972;2022-08-19T12:53:17;100722.41;;;25.51;46.98
54194;BME280;40102;50.906;6.972;2022-08-19T12:55:43;100726.91;;;25.75;46.87
54194;BME280;40102;50.906;6.972;2022-08-19T12:58:09;100732.78;;;26.01;45.97
54194;BME280;40102;50.906;6.972;2022-08-19T13:00:35;100726.19;;;26.10;46.09
54194;BME280;40102;50.906;6.972;2022-08-19T13:03:00;100718.19;;;26.24;46.03
54194;BME280;40102;50.906;6.972;2022-08-19T13:05:29;100737.53;;;26.45;44.74
54194;BME280;40102;50.906;6.972;2022-08-19T13:07:56;100727.69;;;26.51;44.60
54194;BME280;40102;50.906;6.972;2022-08-19T13:10:25;100710.78;;;26.62;43.96